sensor_id;sensor_type;location;lat;lon;timestamp;P1;durP1;ratioP1;P2;durP2;ratioP2
73859;SDS011;62197;51.632;13.700;2023-05-13T00:01:00;4.88;;;3.45;;
73859;SDS011;62197;51.632;13.700;2023-05-13T00:03:25;6.10;;;4.13;;
73859;SDS011;62197;51.632;13.700;2023-05-13T00:05:51;6.45;;;3.90;;
73859;SDS011;62197;51.632;13.700;2023-05-13T00:08:16;8.50;;;4.68;;
73859;SDS011;62197;51.632;13.700;2023-05-13T00:10:41;5.38;;;4.05;;
73859;SDS011;62197;51.632;13.700;2023-05-13T00:13:07;6.32;;;3.97;;
73859;SDS011;62197;51.632;13.700;2023-05-13T00:15:32;4.97;;;3.53;;
73859;SDS011;62197;51.632;13.700;2023-05-13T00:17:58;5.60;;;3.15;;
73859;SDS011;62197;51.632;13.700;2023-05-13T00:20:23;6.88;;;3.90;;
73859;SDS011;62197;51.632;13.700;2023-05-13T00:22:48;8.88;;;3.60;;
73859;SDS011;62197;51.632;13.700;2023-05-13T00:25:14;8.18;;;3.83;;
73859;SDS011;62197;51.632;13.700;2023-05-13T00:27:39;7.53;;;3.55;;
73859;SDS011;62197;51.632;13.700;2023-05-13T00:30:04;5.10;;;3.63;;
73859;SDS011;62197;51.632;13.700;2023-05-13T00:32:30;5.78;;;3.40;;
73859;SDS011;62197;51.632;13.700;2023-05-13T00:34:56;5.35;;;3.67;;
73859;SDS011;62197;51.632;13.700;2023-05-13T00:37:21;5.20;;;3.40;;
73859;SDS011;62197;51.632;13.700;2023-05-13T00:39:46;6.10;;;3.85;;
73859;SDS011;62197;51.632;13.700;2023-05-13T00:42:12;7.15;;;3.55;;
73859;SDS011;62197;51.632;13.700;2023-05-13T00:44:37;7.75;;;3.38;;
73859;SDS011;62197;51.632;13.700;2023-05-13T00:47:04;9.10;;;4.10;;
73859;SDS011;62197;51.632;13.700;2023-05-13T00:49:31;5.80;;;3.90;;
73859;SDS011;62197;51.632;13.700;2023-05-13T00:52:00;4.80;;;3.80;;
73859;SDS011;62197;51.632;13.700;2023-05-13T00:54:25;10.05;;;3.67;;
73859;SDS011;62197;51.632;13.700;2023-05-13T00:56:52;7.65;;;3.85;;
73859;SDS011;62197;51.632;13.700;2023-05-13T00:59:20;4.97;;;3.33;;
73859;SDS011;62197;51.632;13.700;2023-05-13T01:10:22;9.77;;;4.00;;
73859;SDS011;62197;51.632;13.700;2023-05-13T01:12:56;8.00;;;4.10;;
73859;SDS011;62197;51.632;13.700;2023-05-13T01:15:24;10.38;;;3.95;;
73859;SDS011;62197;51.632;13.700;2023-05-13T01:17:56;11.73;;;3.97;;
73859;SDS011;62197;51.632;13.700;2023-05-13T01:20:31;5.97;;;3.90;;
73859;SDS011;62197;51.632;13.700;2023-05-13T01:22:58;5.50;;;3.63;;
73859;SDS011;62197;51.632;13.700;2023-05-13T01:25:23;5.85;;;3.50;;
73859;SDS011;62197;51.632;13.700;2023-05-13T01:30:15;6.25;;;3.20;;
73859;SDS011;62197;51.632;13.700;2023-05-13T01:32:40;8.10;;;4.03;;
73859;SDS011;62197;51.632;13.700;2023-05-13T01:37:32;6.18;;;3.90;;
73859;SDS011;62197;51.632;13.700;2023-05-13T01:39:59;5.93;;;3.53;;
73859;SDS011;62197;51.632;13.700;2023-05-13T01:42:26;6.10;;;3.92;;
73859;SDS011;62197;51.632;13.700;2023-05-13T01:44:53;5.80;;;3.85;;
73859;SDS011;62197;51.632;13.700;2023-05-13T01:47:18;4.88;;;3.75;;
73859;SDS011;62197;51.632;13.700;2023-05-13T01:52:09;9.90;;;3.93;;
73859;SDS011;62197;51.632;13.700;2023-05-13T01:54:34;5.97;;;3.65;;
73859;SDS011;62197;51.632;13.700;2023-05-13T01:57:00;6.32;;;4.10;;
73859;SDS011;62197;51.632;13.700;2023-05-13T02:01:50;6.57;;;4.18;;
73859;SDS011;62197;51.632;13.700;2023-05-13T02:04:16;7.28;;;5.10;;
73859;SDS011;62197;51.632;13.700;2023-05-13T02:09:06;6.87;;;4.87;;
73859;SDS011;62197;51.632;13.700;2023-05-13T02:11:32;7.85;;;4.70;;
73859;SDS011;62197;51.632;13.700;2023-05-13T02:16:22;6.65;;;4.30;;
73859;SDS011;62197;51.632;13.700;2023-05-13T02:18:48;6.47;;;4.28;;
73859;SDS011;62197;51.632;13.700;2023-05-13T02:23:38;6.00;;;4.53;;
73859;SDS011;62197;51.632;13.700;2023-05-13T02:26:03;8.88;;;5.20;;
73859;SDS011;62197;51.632;13.700;2023-05-13T02:30:54;7.53;;;4.43;;
73859;SDS011;62197;51.632;13.700;2023-05-13T02:33:19;7.35;;;4.78;;
73859;SDS011;62197;51.632;13.700;2023-05-13T02:35:45;7.07;;;4.68;;
73859;SDS011;62197;51.632;13.700;2023-05-13T02:40:36;7.97;;;5.15;;
73859;SDS011;62197;51.632;13.700;2023-05-13T02:45:26;7.57;;;4.95;;
73859;SDS011;62197;51.632;13.700;2023-05-13T02:47:52;7.22;;;5.32;;
73859;SDS011;62197;51.632;13.700;2023-05-13T02:52:42;9.30;;;4.70;;
73859;SDS011;62197;51.632;13.700;2023-05-13T02:57:33;7.65;;;5.10;;
73859;SDS011;62197;51.632;13.700;2023-05-13T03:00:00;6.88;;;4.78;;
73859;SDS011;62197;51.632;13.700;2023-05-13T03:02:25;8.88;;;5.20;;
73859;SDS011;62197;51.632;13.700;2023-05-13T03:04:52;10.07;;;5.25;;
73859;SDS011;62197;51.632;13.700;2023-05-13T03:07:18;8.52;;;4.68;;
73859;SDS011;62197;51.632;13.700;2023-05-13T03:09:44;7.38;;;5.30;;
73859;SDS011;62197;51.632;13.700;2023-05-13T03:14:35;11.03;;;6.07;;
73859;SDS011;62197;51.632;13.700;2023-05-13T03:19:26;10.50;;;5.95;;
73859;SDS011;62197;51.632;13.700;2023-05-13T03:21:51;7.75;;;4.90;;
73859;SDS011;62197;51.632;13.700;2023-05-13T03:26:42;10.43;;;6.13;;
73859;SDS011;62197;51.632;13.700;2023-05-13T03:31:32;7.03;;;5.10;;
73859;SDS011;62197;51.632;13.700;2023-05-13T03:36:23;15.67;;;5.77;;
73859;SDS011;62197;51.632;13.700;2023-05-13T03:41:14;8.03;;;5.70;;
73859;SDS011;62197;51.632;13.700;2023-05-13T03:43:41;10.18;;;4.85;;
73859;SDS011;62197;51.632;13.700;2023-05-13T03:48:32;7.17;;;5.13;;
73859;SDS011;62197;51.632;13.700;2023-05-13T03:53:22;9.60;;;4.90;;
73859;SDS011;62197;51.632;13.700;2023-05-13T03:58:14;6.57;;;5.10;;
73859;SDS011;62197;51.632;13.700;2023-05-13T04:00:40;7.43;;;5.35;;
73859;SDS011;62197;51.632;13.700;2023-05-13T04:03:06;8.30;;;5.25;;
73859;SDS011;62197;51.632;13.700;2023-05-13T04:07:56;7.80;;;5.30;;
73859;SDS011;62197;51.632;13.700;2023-05-13T04:12:47;7.93;;;4.23;;
73859;SDS011;62197;51.632;13.700;2023-05-13T04:17:37;8.40;;;4.20;;
73859;SDS011;62197;51.632;13.700;2023-05-13T04:22:28;8.88;;;5.38;;
73859;SDS011;62197;51.632;13.700;2023-05-13T04:27:21;9.20;;;5.40;;
73859;SDS011;62197;51.632;13.700;2023-05-13T04:29:47;7.70;;;5.25;;
73859;SDS011;62197;51.632;13.700;2023-05-13T04:32:13;7.25;;;4.90;;
73859;SDS011;62197;51.632;13.700;2023-05-13T04:34:41;7.82;;;5.03;;
73859;SDS011;62197;51.632;13.700;2023-05-13T04:37:07;7.97;;;5.57;;
73859;SDS011;62197;51.632;13.700;2023-05-13T04:41:58;6.70;;;5.00;;
73859;SDS011;62197;51.632;13.700;2023-05-13T04:46:48;7.83;;;5.00;;
73859;SDS011;62197;51.632;13.700;2023-05-13T04:51:39;9.50;;;5.23;;
73859;SDS011;62197;51.632;13.700;2023-05-13T04:54:04;10.88;;;5.97;;
73859;SDS011;62197;51.632;13.700;2023-05-13T04:56:29;8.65;;;5.30;;
73859;SDS011;62197;51.632;13.700;2023-05-13T05:01:20;7.37;;;4.67;;
73859;SDS011;62197;51.632;13.700;2023-05-13T05:03:45;9.02;;;4.90;;
73859;SDS011;62197;51.632;13.700;2023-05-13T05:06:10;10.25;;;5.82;;
73859;SDS011;62197;51.632;13.700;2023-05-13T05:11:01;8.50;;;5.20;;
73859;SDS011;62197;51.632;13.700;2023-05-13T05:13:26;8.15;;;5.32;;
73859;SDS011;62197;51.632;13.700;2023-05-13T05:15:51;6.80;;;5.20;;
73859;SDS011;62197;51.632;13.700;2023-05-13T05:20:42;7.30;;;5.37;;
73859;SDS011;62197;51.632;13.700;2023-05-13T05:23:07;7.90;;;5.15;;
73859;SDS011;62197;51.632;13.700;2023-05-13T05:25:34;8.07;;;5.28;;
73859;SDS011;62197;51.632;13.700;2023-05-13T05:28:00;8.23;;;4.90;;
73859;SDS011;62197;51.632;13.700;2023-05-13T05:30:28;7.38;;;5.43;;
73859;SDS011;62197;51.632;13.700;2023-05-13T05:32:54;7.65;;;5.40;;
73859;SDS011;62197;51.632;13.700;2023-05-13T05:35:20;10.25;;;6.00;;
73859;SDS011;62197;51.632;13.700;2023-05-13T05:37:45;12.25;;;4.78;;
73859;SDS011;62197;51.632;13.700;2023-05-13T05:40:11;10.90;;;6.25;;
73859;SDS011;62197;51.632;13.700;2023-05-13T05:42:36;7.78;;;5.82;;
73859;SDS011;62197;51.632;13.700;2023-05-13T05:45:02;8.80;;;5.70;;
73859;SDS011;62197;51.632;13.700;2023-05-13T05:47:27;9.75;;;5.05;;
73859;SDS011;62197;51.632;13.700;2023-05-13T05:49:52;6.85;;;4.47;;
73859;SDS011;62197;51.632;13.700;2023-05-13T05:52:18;6.97;;;5.32;;
73859;SDS011;62197;51.632;13.700;2023-05-13T05:54:43;11.70;;;7.00;;
73859;SDS011;62197;51.632;13.700;2023-05-13T05:57:08;10.38;;;5.40;;
73859;SDS011;62197;51.632;13.700;2023-05-13T05:59:34;11.65;;;5.43;;
73859;SDS011;62197;51.632;13.700;2023-05-13T06:01:59;10.93;;;4.57;;
73859;SDS011;62197;51.632;13.700;2023-05-13T06:04:24;8.43;;;5.22;;
73859;SDS011;62197;51.632;13.700;2023-05-13T06:06:50;9.77;;;5.22;;
73859;SDS011;62197;51.632;13.700;2023-05-13T06:09:15;9.02;;;4.82;;
73859;SDS011;62197;51.632;13.700;2023-05-13T06:11:40;8.00;;;5.25;;
73859;SDS011;62197;51.632;13.700;2023-05-13T06:14:06;8.70;;;4.90;;
73859;SDS011;62197;51.632;13.700;2023-05-13T06:16:31;8.57;;;5.47;;
73859;SDS011;62197;51.632;13.700;2023-05-13T06:18:57;7.28;;;4.95;;
73859;SDS011;62197;51.632;13.700;2023-05-13T06:21:22;10.82;;;5.22;;
73859;SDS011;62197;51.632;13.700;2023-05-13T06:23:48;8.00;;;4.78;;
73859;SDS011;62197;51.632;13.700;2023-05-13T06:26:13;11.27;;;7.03;;
73859;SDS011;62197;51.632;13.700;2023-05-13T06:28:38;8.02;;;4.80;;
73859;SDS011;62197;51.632;13.700;2023-05-13T06:31:04;9.48;;;6.07;;
73859;SDS011;62197;51.632;13.700;2023-05-13T06:33:29;6.10;;;4.50;;
73859;SDS011;62197;51.632;13.700;2023-05-13T06:35:54;6.80;;;5.18;;
73859;SDS011;62197;51.632;13.700;2023-05-13T06:38:20;7.22;;;4.90;;
73859;SDS011;62197;51.632;13.700;2023-05-13T06:40:45;7.55;;;5.07;;
73859;SDS011;62197;51.632;13.700;2023-05-13T06:43:11;7.95;;;4.80;;
73859;SDS011;62197;51.632;13.700;2023-05-13T06:45:38;9.38;;;5.65;;
73859;SDS011;62197;51.632;13.700;2023-05-13T06:48:03;10.35;;;5.03;;
73859;SDS011;62197;51.632;13.700;2023-05-13T06:50:29;10.57;;;5.13;;
73859;SDS011;62197;51.632;13.700;2023-05-13T06:52:54;7.00;;;5.13;;
73859;SDS011;62197;51.632;13.700;2023-05-13T06:55:20;7.05;;;5.07;;
73859;SDS011;62197;51.632;13.700;2023-05-13T06:57:45;8.15;;;4.57;;
73859;SDS011;62197;51.632;13.700;2023-05-13T07:00:11;7.03;;;4.68;;
73859;SDS011;62197;51.632;13.700;2023-05-13T07:02:38;9.32;;;5.88;;
73859;SDS011;62197;51.632;13.700;2023-05-13T07:05:03;11.55;;;5.80;;
73859;SDS011;62197;51.632;13.700;2023-05-13T07:07:29;9.77;;;5.50;;
73859;SDS011;62197;51.632;13.700;2023-05-13T07:09:54;6.03;;;4.32;;
73859;SDS011;62197;51.632;13.700;2023-05-13T07:12:19;8.52;;;4.00;;
73859;SDS011;62197;51.632;13.700;2023-05-13T07:14:45;6.82;;;4.43;;
73859;SDS011;62197;51.632;13.700;2023-05-13T07:17:10;8.18;;;4.50;;
73859;SDS011;62197;51.632;13.700;2023-05-13T07:19:36;6.95;;;4.13;;
73859;SDS011;62197;51.632;13.700;2023-05-13T07:22:01;8.02;;;4.82;;
73859;SDS011;62197;51.632;13.700;2023-05-13T07:24:26;5.53;;;4.30;;
73859;SDS011;62197;51.632;13.700;2023-05-13T07:26:52;6.75;;;3.95;;
73859;SDS011;62197;51.632;13.700;2023-05-13T07:29:17;6.47;;;4.28;;
73859;SDS011;62197;51.632;13.700;2023-05-13T07:31:42;6.03;;;3.83;;
73859;SDS011;62197;51.632;13.700;2023-05-13T07:34:08;6.22;;;3.97;;
73859;SDS011;62197;51.632;13.700;2023-05-13T07:36:36;7.32;;;4.50;;
73859;SDS011;62197;51.632;13.700;2023-05-13T07:39:01;7.88;;;4.15;;
73859;SDS011;62197;51.632;13.700;2023-05-13T07:41:27;7.47;;;4.28;;
73859;SDS011;62197;51.632;13.700;2023-05-13T07:43:52;9.55;;;4.35;;
73859;SDS011;62197;51.632;13.700;2023-05-13T07:46:18;8.05;;;3.90;;
73859;SDS011;62197;51.632;13.700;2023-05-13T07:48:46;9.38;;;4.70;;
73859;SDS011;62197;51.632;13.700;2023-05-13T07:51:12;7.70;;;4.47;;
73859;SDS011;62197;51.632;13.700;2023-05-13T07:53:37;7.70;;;3.97;;
73859;SDS011;62197;51.632;13.700;2023-05-13T07:56:03;6.70;;;4.00;;
73859;SDS011;62197;51.632;13.700;2023-05-13T07:58:28;11.57;;;4.15;;
73859;SDS011;62197;51.632;13.700;2023-05-13T08:00:53;7.47;;;4.18;;
73859;SDS011;62197;51.632;13.700;2023-05-13T08:03:19;5.65;;;3.58;;
73859;SDS011;62197;51.632;13.700;2023-05-13T08:05:44;6.28;;;4.07;;
73859;SDS011;62197;51.632;13.700;2023-05-13T08:08:11;5.18;;;3.55;;
73859;SDS011;62197;51.632;13.700;2023-05-13T08:10:37;5.53;;;3.63;;
73859;SDS011;62197;51.632;13.700;2023-05-13T08:13:02;5.97;;;4.32;;
73859;SDS011;62197;51.632;13.700;2023-05-13T08:15:27;10.63;;;4.00;;
73859;SDS011;62197;51.632;13.700;2023-05-13T08:17:53;5.72;;;3.95;;
73859;SDS011;62197;51.632;13.700;2023-05-13T08:20:19;5.47;;;3.28;;
73859;SDS011;62197;51.632;13.700;2023-05-13T08:22:44;5.40;;;3.13;;
73859;SDS011;62197;51.632;13.700;2023-05-13T08:25:10;7.75;;;3.15;;
73859;SDS011;62197;51.632;13.700;2023-05-13T08:27:35;8.82;;;3.72;;
73859;SDS011;62197;51.632;13.700;2023-05-13T08:30:01;6.13;;;3.40;;
73859;SDS011;62197;51.632;13.700;2023-05-13T08:32:26;7.00;;;3.83;;
73859;SDS011;62197;51.632;13.700;2023-05-13T08:34:52;4.50;;;3.47;;
73859;SDS011;62197;51.632;13.700;2023-05-13T08:37:18;7.53;;;3.83;;
73859;SDS011;62197;51.632;13.700;2023-05-13T08:39:43;6.70;;;4.38;;
73859;SDS011;62197;51.632;13.700;2023-05-13T08:42:08;9.85;;;4.53;;
73859;SDS011;62197;51.632;13.700;2023-05-13T08:44:35;7.43;;;3.38;;
73859;SDS011;62197;51.632;13.700;2023-05-13T08:49:50;8.50;;;3.70;;
73859;SDS011;62197;51.632;13.700;2023-05-13T08:52:17;5.30;;;3.30;;
73859;SDS011;62197;51.632;13.700;2023-05-13T08:54:43;6.10;;;3.47;;
73859;SDS011;62197;51.632;13.700;2023-05-13T08:57:10;6.20;;;4.15;;
73859;SDS011;62197;51.632;13.700;2023-05-13T08:59:35;11.10;;;3.85;;
73859;SDS011;62197;51.632;13.700;2023-05-13T09:02:01;6.53;;;3.72;;
73859;SDS011;62197;51.632;13.700;2023-05-13T09:04:28;7.95;;;3.50;;
73859;SDS011;62197;51.632;13.700;2023-05-13T09:06:53;3.90;;;3.50;;
73859;SDS011;62197;51.632;13.700;2023-05-13T09:09:19;4.78;;;2.92;;
73859;SDS011;62197;51.632;13.700;2023-05-13T09:11:47;5.55;;;2.90;;
73859;SDS011;62197;51.632;13.700;2023-05-13T09:14:12;6.53;;;3.50;;
73859;SDS011;62197;51.632;13.700;2023-05-13T09:16:43;7.88;;;3.63;;
73859;SDS011;62197;51.632;13.700;2023-05-13T09:19:08;6.55;;;3.30;;
73859;SDS011;62197;51.632;13.700;2023-05-13T09:21:35;4.35;;;3.30;;
73859;SDS011;62197;51.632;13.700;2023-05-13T09:24:01;4.20;;;3.15;;
73859;SDS011;62197;51.632;13.700;2023-05-13T09:26:31;5.47;;;3.10;;
73859;SDS011;62197;51.632;13.700;2023-05-13T09:31:47;6.75;;;3.47;;
73859;SDS011;62197;51.632;13.700;2023-05-13T09:37:04;5.95;;;3.70;;
73859;SDS011;62197;51.632;13.700;2023-05-13T09:39:32;7.40;;;3.78;;
73859;SDS011;62197;51.632;13.700;2023-05-13T09:42:01;4.80;;;3.10;;
73859;SDS011;62197;51.632;13.700;2023-05-13T09:44:27;6.25;;;3.75;;
73859;SDS011;62197;51.632;13.700;2023-05-13T09:46:53;7.35;;;3.55;;
73859;SDS011;62197;51.632;13.700;2023-05-13T09:49:22;7.03;;;3.55;;
73859;SDS011;62197;51.632;13.700;2023-05-13T09:51:48;5.20;;;3.47;;
73859;SDS011;62197;51.632;13.700;2023-05-13T09:54:13;6.35;;;3.58;;
73859;SDS011;62197;51.632;13.700;2023-05-13T09:56:39;6.53;;;3.92;;
73859;SDS011;62197;51.632;13.700;2023-05-13T09:59:04;6.28;;;3.38;;
73859;SDS011;62197;51.632;13.700;2023-05-13T10:01:29;4.68;;;3.30;;
73859;SDS011;62197;51.632;13.700;2023-05-13T10:03:55;4.20;;;3.40;;
73859;SDS011;62197;51.632;13.700;2023-05-13T10:06:23;4.60;;;3.55;;
73859;SDS011;62197;51.632;13.700;2023-05-13T10:08:50;7.82;;;4.18;;
73859;SDS011;62197;51.632;13.700;2023-05-13T10:11:19;7.32;;;3.72;;
73859;SDS011;62197;51.632;13.700;2023-05-13T10:13:47;5.65;;;3.60;;
73859;SDS011;62197;51.632;13.700;2023-05-13T10:16:14;5.55;;;3.88;;
73859;SDS011;62197;51.632;13.700;2023-05-13T10:18:40;10.50;;;3.72;;
73859;SDS011;62197;51.632;13.700;2023-05-13T10:21:06;5.43;;;3.25;;
73859;SDS011;62197;51.632;13.700;2023-05-13T10:23:31;4.80;;;3.50;;
73859;SDS011;62197;51.632;13.700;2023-05-13T10:25:58;6.10;;;3.53;;
73859;SDS011;62197;51.632;13.700;2023-05-13T10:28:24;7.55;;;3.33;;
73859;SDS011;62197;51.632;13.700;2023-05-13T10:30:49;7.82;;;4.25;;
73859;SDS011;62197;51.632;13.700;2023-05-13T10:33:17;6.00;;;3.47;;
73859;SDS011;62197;51.632;13.700;2023-05-13T10:35:48;5.75;;;3.85;;
73859;SDS011;62197;51.632;13.700;2023-05-13T10:38:23;5.00;;;3.65;;
73859;SDS011;62197;51.632;13.700;2023-05-13T10:43:59;5.25;;;3.13;;
73859;SDS011;62197;51.632;13.700;2023-05-13T10:46:24;6.00;;;3.45;;
73859;SDS011;62197;51.632;13.700;2023-05-13T10:48:56;5.50;;;3.67;;
73859;SDS011;62197;51.632;13.700;2023-05-13T10:51:23;5.25;;;3.55;;
73859;SDS011;62197;51.632;13.700;2023-05-13T10:53:50;8.70;;;2.85;;
73859;SDS011;62197;51.632;13.700;2023-05-13T10:56:20;4.40;;;3.10;;
73859;SDS011;62197;51.632;13.700;2023-05-13T10:58:57;6.68;;;3.35;;
73859;SDS011;62197;51.632;13.700;2023-05-13T11:01:36;5.07;;;2.83;;
73859;SDS011;62197;51.632;13.700;2023-05-13T11:04:08;4.53;;;3.30;;
73859;SDS011;62197;51.632;13.700;2023-05-13T11:06:38;5.28;;;2.90;;
73859;SDS011;62197;51.632;13.700;2023-05-13T11:09:05;3.90;;;2.20;;
73859;SDS011;62197;51.632;13.700;2023-05-13T11:11:33;3.22;;;2.40;;
73859;SDS011;62197;51.632;13.700;2023-05-13T11:14:19;3.90;;;2.30;;
73859;SDS011;62197;51.632;13.700;2023-05-13T11:19:18;6.85;;;2.60;;
73859;SDS011;62197;51.632;13.700;2023-05-13T11:21:55;6.53;;;2.90;;
73859;SDS011;62197;51.632;13.700;2023-05-13T11:24:22;6.55;;;3.17;;
73859;SDS011;62197;51.632;13.700;2023-05-13T11:26:50;3.13;;;2.38;;
73859;SDS011;62197;51.632;13.700;2023-05-13T11:29:26;7.50;;;2.92;;
73859;SDS011;62197;51.632;13.700;2023-05-13T11:31:53;4.30;;;2.65;;
73859;SDS011;62197;51.632;13.700;2023-05-13T11:34:21;4.65;;;2.50;;
73859;SDS011;62197;51.632;13.700;2023-05-13T11:36:48;3.63;;;2.50;;
73859;SDS011;62197;51.632;13.700;2023-05-13T11:39:15;3.90;;;2.55;;
73859;SDS011;62197;51.632;13.700;2023-05-13T11:41:43;6.38;;;2.50;;
73859;SDS011;62197;51.632;13.700;2023-05-13T11:44:10;4.55;;;2.67;;
73859;SDS011;62197;51.632;13.700;2023-05-13T11:46:37;6.05;;;2.45;;
73859;SDS011;62197;51.632;13.700;2023-05-13T11:49:02;8.52;;;3.05;;
73859;SDS011;62197;51.632;13.700;2023-05-13T11:51:28;4.43;;;2.53;;
73859;SDS011;62197;51.632;13.700;2023-05-13T11:53:59;4.95;;;2.83;;
73859;SDS011;62197;51.632;13.700;2023-05-13T11:56:25;3.20;;;2.22;;
73859;SDS011;62197;51.632;13.700;2023-05-13T11:58:52;2.85;;;2.50;;
73859;SDS011;62197;51.632;13.700;2023-05-13T12:01:17;3.55;;;2.20;;
73859;SDS011;62197;51.632;13.700;2023-05-13T12:03:43;3.55;;;2.22;;
73859;SDS011;62197;51.632;13.700;2023-05-13T12:06:08;3.85;;;2.42;;
73859;SDS011;62197;51.632;13.700;2023-05-13T12:08:33;4.03;;;2.33;;
73859;SDS011;62197;51.632;13.700;2023-05-13T12:10:59;5.28;;;2.90;;
73859;SDS011;62197;51.632;13.700;2023-05-13T12:13:24;3.65;;;2.65;;
73859;SDS011;62197;51.632;13.700;2023-05-13T12:15:50;4.50;;;2.50;;
73859;SDS011;62197;51.632;13.700;2023-05-13T12:18:15;4.15;;;2.53;;
73859;SDS011;62197;51.632;13.700;2023-05-13T12:20:41;4.07;;;2.75;;
73859;SDS011;62197;51.632;13.700;2023-05-13T12:23:06;9.52;;;2.90;;
73859;SDS011;62197;51.632;13.700;2023-05-13T12:25:45;4.15;;;2.40;;
73859;SDS011;62197;51.632;13.700;2023-05-13T12:30:57;4.78;;;2.88;;
73859;SDS011;62197;51.632;13.700;2023-05-13T12:33:26;7.40;;;3.03;;
73859;SDS011;62197;51.632;13.700;2023-05-13T12:35:55;3.90;;;2.70;;
73859;SDS011;62197;51.632;13.700;2023-05-13T12:38:40;9.02;;;3.53;;
73859;SDS011;62197;51.632;13.700;2023-05-13T12:41:29;3.47;;;2.75;;
73859;SDS011;62197;51.632;13.700;2023-05-13T12:43:57;7.18;;;3.50;;
73859;SDS011;62197;51.632;13.700;2023-05-13T12:46:24;4.63;;;3.00;;
73859;SDS011;62197;51.632;13.700;2023-05-13T12:48:56;5.18;;;3.03;;
73859;SDS011;62197;51.632;13.700;2023-05-13T12:51:26;5.90;;;3.15;;
73859;SDS011;62197;51.632;13.700;2023-05-13T12:53:52;5.15;;;3.47;;
73859;SDS011;62197;51.632;13.700;2023-05-13T12:56:21;8.38;;;4.07;;
73859;SDS011;62197;51.632;13.700;2023-05-13T12:58:47;5.57;;;3.30;;
73859;SDS011;62197;51.632;13.700;2023-05-13T13:01:13;5.40;;;3.15;;
73859;SDS011;62197;51.632;13.700;2023-05-13T13:03:40;3.72;;;3.08;;
73859;SDS011;62197;51.632;13.700;2023-05-13T13:06:05;6.13;;;3.00;;
73859;SDS011;62197;51.632;13.700;2023-05-13T13:08:31;6.68;;;3.10;;
73859;SDS011;62197;51.632;13.700;2023-05-13T13:10:57;6.32;;;3.28;;
73859;SDS011;62197;51.632;13.700;2023-05-13T13:13:23;5.53;;;2.90;;
73859;SDS011;62197;51.632;13.700;2023-05-13T13:15:48;5.72;;;2.83;;
73859;SDS011;62197;51.632;13.700;2023-05-13T13:18:14;4.50;;;2.95;;
73859;SDS011;62197;51.632;13.700;2023-05-13T13:20:39;4.93;;;3.28;;
73859;SDS011;62197;51.632;13.700;2023-05-13T13:23:04;5.82;;;2.83;;
73859;SDS011;62197;51.632;13.700;2023-05-13T13:25:30;5.43;;;3.03;;
73859;SDS011;62197;51.632;13.700;2023-05-13T13:27:56;7.18;;;2.90;;
73859;SDS011;62197;51.632;13.700;2023-05-13T13:30:22;6.15;;;3.00;;
73859;SDS011;62197;51.632;13.700;2023-05-13T13:32:47;3.72;;;2.40;;
73859;SDS011;62197;51.632;13.700;2023-05-13T13:35:12;5.85;;;2.80;;
73859;SDS011;62197;51.632;13.700;2023-05-13T13:37:38;4.03;;;2.67;;
73859;SDS011;62197;51.632;13.700;2023-05-13T13:40:03;4.80;;;2.53;;
73859;SDS011;62197;51.632;13.700;2023-05-13T13:42:29;5.63;;;2.30;;
73859;SDS011;62197;51.632;13.700;2023-05-13T13:44:54;4.97;;;2.10;;
73859;SDS011;62197;51.632;13.700;2023-05-13T13:47:20;3.60;;;2.72;;
73859;SDS011;62197;51.632;13.700;2023-05-13T13:49:45;3.13;;;2.20;;
73859;SDS011;62197;51.632;13.700;2023-05-13T13:52:12;3.70;;;2.20;;
73859;SDS011;62197;51.632;13.700;2023-05-13T13:54:37;3.75;;;2.65;;
73859;SDS011;62197;51.632;13.700;2023-05-13T13:57:02;4.25;;;2.22;;
73859;SDS011;62197;51.632;13.700;2023-05-13T13:59:28;3.00;;;2.00;;
73859;SDS011;62197;51.632;13.700;2023-05-13T14:01:53;3.60;;;2.22;;
73859;SDS011;62197;51.632;13.700;2023-05-13T14:04:19;3.17;;;2.88;;
73859;SDS011;62197;51.632;13.700;2023-05-13T14:06:47;4.28;;;2.30;;
73859;SDS011;62197;51.632;13.700;2023-05-13T14:09:12;4.22;;;2.20;;
73859;SDS011;62197;51.632;13.700;2023-05-13T14:11:38;4.28;;;2.08;;
73859;SDS011;62197;51.632;13.700;2023-05-13T14:14:03;3.90;;;2.10;;
73859;SDS011;62197;51.632;13.700;2023-05-13T14:16:28;4.82;;;2.05;;
73859;SDS011;62197;51.632;13.700;2023-05-13T14:18:54;3.03;;;2.45;;
73859;SDS011;62197;51.632;13.700;2023-05-13T14:21:19;4.72;;;2.20;;
73859;SDS011;62197;51.632;13.700;2023-05-13T14:23:45;2.55;;;1.60;;
73859;SDS011;62197;51.632;13.700;2023-05-13T14:26:10;5.07;;;1.98;;
73859;SDS011;62197;51.632;13.700;2023-05-13T14:28:38;5.05;;;2.03;;
73859;SDS011;62197;51.632;13.700;2023-05-13T14:31:04;2.95;;;2.30;;
73859;SDS011;62197;51.632;13.700;2023-05-13T14:33:29;3.13;;;2.10;;
73859;SDS011;62197;51.632;13.700;2023-05-13T14:35:54;4.40;;;1.90;;
73859;SDS011;62197;51.632;13.700;2023-05-13T14:38:20;2.92;;;1.90;;
73859;SDS011;62197;51.632;13.700;2023-05-13T14:40:45;2.60;;;2.05;;
73859;SDS011;62197;51.632;13.700;2023-05-13T14:43:10;5.65;;;1.98;;
73859;SDS011;62197;51.632;13.700;2023-05-13T14:45:36;4.47;;;2.40;;
73859;SDS011;62197;51.632;13.700;2023-05-13T14:48:01;3.95;;;2.50;;
73859;SDS011;62197;51.632;13.700;2023-05-13T14:50:27;3.55;;;2.00;;
73859;SDS011;62197;51.632;13.700;2023-05-13T14:52:52;2.92;;;1.83;;
73859;SDS011;62197;51.632;13.700;2023-05-13T14:55:17;2.47;;;1.88;;
73859;SDS011;62197;51.632;13.700;2023-05-13T14:57:43;2.15;;;1.75;;
73859;SDS011;62197;51.632;13.700;2023-05-13T15:00:09;2.67;;;1.90;;
73859;SDS011;62197;51.632;13.700;2023-05-13T15:02:35;4.35;;;2.22;;
73859;SDS011;62197;51.632;13.700;2023-05-13T15:05:00;5.50;;;2.05;;
73859;SDS011;62197;51.632;13.700;2023-05-13T15:07:25;4.43;;;2.00;;
73859;SDS011;62197;51.632;13.700;2023-05-13T15:09:51;2.85;;;2.08;;
73859;SDS011;62197;51.632;13.700;2023-05-13T15:12:16;5.45;;;2.15;;
73859;SDS011;62197;51.632;13.700;2023-05-13T15:14:41;3.45;;;2.05;;
73859;SDS011;62197;51.632;13.700;2023-05-13T15:17:07;4.60;;;1.80;;
73859;SDS011;62197;51.632;13.700;2023-05-13T15:19:35;3.45;;;1.70;;
73859;SDS011;62197;51.632;13.700;2023-05-13T15:22:01;3.88;;;2.42;;
73859;SDS011;62197;51.632;13.700;2023-05-13T15:24:26;3.17;;;2.00;;
73859;SDS011;62197;51.632;13.700;2023-05-13T15:26:51;3.13;;;1.83;;
73859;SDS011;62197;51.632;13.700;2023-05-13T15:29:17;2.33;;;1.92;;
73859;SDS011;62197;51.632;13.700;2023-05-13T15:31:42;6.07;;;2.03;;
73859;SDS011;62197;51.632;13.700;2023-05-13T15:34:07;2.58;;;1.85;;
73859;SDS011;62197;51.632;13.700;2023-05-13T15:36:33;3.55;;;1.90;;
73859;SDS011;62197;51.632;13.700;2023-05-13T15:38:59;3.67;;;2.03;;
73859;SDS011;62197;51.632;13.700;2023-05-13T15:41:24;3.20;;;1.77;;
73859;SDS011;62197;51.632;13.700;2023-05-13T15:43:50;3.47;;;2.10;;
73859;SDS011;62197;51.632;13.700;2023-05-13T15:46:15;3.15;;;2.10;;
73859;SDS011;62197;51.632;13.700;2023-05-13T15:48:40;3.10;;;2.35;;
73859;SDS011;62197;51.632;13.700;2023-05-13T15:51:06;2.45;;;2.25;;
73859;SDS011;62197;51.632;13.700;2023-05-13T15:53:31;3.28;;;2.30;;
73859;SDS011;62197;51.632;13.700;2023-05-13T15:55:56;2.83;;;1.70;;
73859;SDS011;62197;51.632;13.700;2023-05-13T15:58:22;3.72;;;2.08;;
73859;SDS011;62197;51.632;13.700;2023-05-13T16:00:47;2.25;;;1.80;;
73859;SDS011;62197;51.632;13.700;2023-05-13T16:03:12;2.67;;;1.42;;
73859;SDS011;62197;51.632;13.700;2023-05-13T16:05:39;3.30;;;1.83;;
73859;SDS011;62197;51.632;13.700;2023-05-13T16:08:04;2.30;;;1.70;;
73859;SDS011;62197;51.632;13.700;2023-05-13T16:10:29;2.00;;;1.50;;